• Join FlightAware (Why Join?)
  • Login
  • US Flag 
09:42AM EDT


 

Airport Tracker/Info


-or-


 

Live Flight TrackerFlight Track Log ✈ N93WT ✈ 26-May-2013 ✈ KDAL - KABI

Flight Track Log - Related Links

Times and Time Zones

All times are in EDT time to prevent confusion due to time zone crossing. See the N93WT flight status page for this flight to view local times or setup timezone preferences in your user account.

Time Position Orientation Groundspeed Altitude Reporting Facility
EDT Latitude Longitude Course Direction KTS MPH feet Rate Location/Type
05:17PM 32.8167 -96.8500 177° South 141 162 2,600  Level Dallas / Fort Worth TRACON
05:18PM 32.8500 -96.9000 308° West 195 224 3,900 600 Climbing Dallas / Fort Worth TRACON
05:19PM 32.8833 -96.9667 301° West 247 284 3,900  Level Dallas / Fort Worth TRACON
05:20PM 32.9000 -97.0500 283° West 232 267 3,900  Level Dallas / Fort Worth TRACON
05:21PM 32.8833 -97.1167 253° West 212 244 3,900  Level Dallas / Fort Worth TRACON
05:22PM 32.8833 -97.2000 270° West 212 244 3,900 120 Level Dallas / Fort Worth TRACON
05:24PM 32.8667 -97.3244 261° West 221 254 4,400 420 Climbing Fort Worth Center
05:25PM 32.8606 -97.3861 263° West 209 241 5,200 900 Climbing Fort Worth Center
05:26PM 32.8542 -97.4531 264° West 199 229 6,300 1,020 Climbing Fort Worth Center
05:27PM 32.8481 -97.5147 263° West 199 229 7,300 1,140 Climbing Fort Worth Center
05:28PM 32.8375 -97.5817 259° West 199 229 8,600 1,140 Climbing Fort Worth Center
05:29PM 32.8247 -97.6458 257° West 199 229 9,600 660 Climbing Fort Worth Center
05:30PM 32.8122 -97.7075 256° West 205 236 10,000 480 Climbing Fort Worth Center
05:31PM 32.7953 -97.7867 256° West 222 255 10,600 900 Climbing Fort Worth Center
05:32PM 32.7847 -97.8458 258° West 216 249 11,900 900 Climbing Fort Worth Center
05:33PM 32.7697 -97.9200 256° West 216 249 12,400 600 Climbing Fort Worth Center
05:34PM 32.7569 -97.9817 256° West 216 249 13,200 780 Climbing Fort Worth Center
05:35PM 32.7419 -98.0606 257° West 222 255 14,000 360 Climbing Fort Worth Center
05:36PM 32.7269 -98.1294 256° West 231 266 14,000  Level Fort Worth Center
05:37PM 32.7097 -98.2183 257° West 251 289 14,100  Climbing Fort Worth Center
05:38PM 32.6967 -98.2947 259° West 258 297 14,000 -60 Descending Fort Worth Center
05:39PM 32.6814 -98.3858 259° West 259 298 14,000 -60 Level Fort Worth Center
05:40PM 32.6661 -98.4722 258° West 259 298 13,900 -60 Descending Fort Worth Center
05:41PM 32.6486 -98.5558 256° West 259 298 13,900  Level Fort Worth Center
05:42PM 32.6289 -98.6394 254° West 259 298 13,900  Level Fort Worth Center
05:43PM 32.6114 -98.7231 256° West 259 298 13,900  Level Fort Worth Center
05:44PM 32.5917 -98.8067 254° West 259 298 13,900  Level Fort Worth Center
05:45PM 32.5742 -98.8900 256° West 259 298 13,900  Level Fort Worth Center
05:46PM 32.5564 -98.9736 256° West 259 298 13,900 -60 Level Fort Worth Center
05:47PM 32.5386 -99.0572 256° West 259 298 13,800 -420 Descending Fort Worth Center
05:48PM 32.5228 -99.1431 258° West 259 298 13,100 -720 Descending Fort Worth Center
05:49PM 32.5072 -99.2239 257° West 259 298 12,400 -960 Descending Fort Worth Center
05:50PM 32.4892 -99.3075 256° West 259 298 11,200 -1,200 Descending Fort Worth Center
05:51PM 32.4711 -99.3883 255° West 259 298 10,000 -1,500 Descending Fort Worth Center
05:52PM 32.4617 -99.4669 262° West 253 291 8,200 -2,100 Descending Fort Worth Center
05:53PM 32.4583 -99.5431 267° West 248 285 5,800 -2,160 Descending Fort Worth Center
05:54PM 32.4550 -99.6169 267° West 243 280 3,900 -1,740 Descending Fort Worth Center
05:55PM 32.4475 -99.6783 262° West 216 249 2,400 -1,080 Descending Fort Worth Center
05:56PM 32.4261 -99.7047 226° Southwest 155 178 1,800 -600 Descending Fort Worth Center